Scott AFB Midamerica

Current Flights

Info
Name: Scott AFB Midamerica
Identifier:  BLV/KBLV
Local Time:  18. Jun 11:38
City
Flights per Day
7 flights
Distance: 1,261km (783mi)
Punctuality
53% (3 flights per day delayed)
Delay Average: 5 minutes
Current Weather
 26 C (Humidity: 73%)
  6kt (11km/h / 6mph) from 10°
  Scattered clouds at 1,900 feet (579 meter)
  16km (10 mi.)
 Light/Moderate: Drizzle
 METAR KBLV 181626Z AUTO 01006KT 10SM -DZ SCT019 26/21 A2992 RMK AO2 RAE1556DZB21 SLP131 $

Current Delays

Departures
N/A
Arrivals
N/A

Destinations

Top Destinations
Airport Flights
per week
Seats
per week
  Valparaiso (VPS) 16 854 2 122
  St. Petersburg (PIE) 9 684 1 97
  Orlando (SFB) 9 1,090 1 155
  Punta Gorda (PGD) 7 1,024 1 146
  Jacksonville (JAX) 5 807 0 115
  Fort Lauderdale (FLL) 3 247 0 35
  Las Vegas (LAS) 3 436 0 62
  Myrtle Beach (MYR) 2 82 0 11
  St. Louis (CPS) 0 - 0 0
  Paragould (PGR) 0 - 0 0
  Gary (GYY) 0 - 0 0
  Rolla (RLA) 0 - 0 0

Airlines & Planes

Top Airlines
Airline Flights
per Day
Seats
per Day
  Allegiant Air 8 758
  Nolinor Aviation 0 -
Nordwind Airlines 0 -
  Flybe Nordic 0 -
  Federal Express (FedEx) 0 -
  National Airlines 0 -
Jet Charter Inc ( Franklin Lakes Nj ) 0 -
Top Plane Types
Model Flights Seats
Airbus A320 6.5/day 550/day 550.1
Airbus A319 1.9/day 208/day 208
Cessna C172 0.1/day - 0
Beech E55 Baron 0.1/day - 0
Learjet 35A 0.1/day - 0
Cessna C208 0.1/day - 0
Hawker Beechcraft 400XP 0.0/day - 0